Alyeska Resort
Hourly Weather - Mid Mountian Site
ALY_MID_HR 8/22/2014
CLICK TO VIEW GRAPH!!

        DATE  TIME   Air   H2o   H2o   New  Snow  BATT   Rel
                    Temp  Inch Since  Snow Depth  Volt  Hum%
                      F   1HR  0600   1HR         AVG   AVG

   8/22/2014 19:00    61  0.00  0.00  51.9  0.75 13.07    72
   8/22/2014 18:00    62  0.00  0.00  52.3  0.75 13.06    70
   8/22/2014 17:00    64  0.00  0.00  52.5166.20 13.08    67
   8/22/2014 16:00    64  0.00  0.00  53.4150.50 13.09    68
   8/22/2014 15:00    62  0.00  0.00  54.8164.90 13.13    72
   8/22/2014 14:00    57  0.00  0.00  55.1149.50 13.16    80
   8/22/2014 13:00    56  0.00  0.00  55.9164.60 13.17    82
   8/22/2014 12:00    56  0.00  0.00  59.6  2.00 13.18    82
   8/22/2014 11:00    54  0.00  0.00  64.5  4.40 13.20    85
   8/22/2014 10:00    52  0.00  0.00  71.4  0.78 13.21    89
   8/22/2014 09:00    52  0.00  0.00  74.2  2.06 13.22    90
   8/22/2014 08:00    51  0.00  0.00  74.1  1.75 13.22    92
   8/22/2014 07:00    50  0.00  0.00  71.0  1.10 13.21    92
   8/22/2014 06:00    51  0.00  0.00  66.0  1.19 13.21    92
   8/22/2014 05:00    51  0.00  0.00  62.1  0.94 13.20    91
   8/22/2014 04:00    52  0.00  0.00  59.0  0.01 13.19    89
   8/22/2014 03:00    52  0.00  0.00  56.9  0.54 13.18    89
   8/22/2014 02:00    52  0.00  0.00  54.8  0.82 13.17    89
   8/22/2014 01:00    53  0.00  0.00  53.5  1.65 13.16    88
   8/21/2014 24:00    54  0.00  0.00  52.5  0.02 13.14    87
   8/21/2014 23:00    54  0.00  0.00  51.8  0.24 13.12    87
   8/21/2014 22:00    55  0.00  0.00  51.2  0.27 13.10    86
   8/21/2014 21:00    57  0.00  0.00  51.3  4.78 13.08    83
   8/21/2014 20:00    59  0.00  0.00  51.8  3.46 13.06    78


CLICK TO VIEW GRAPH!!